Terminal Aerodrome Forecast
Issued by NWS

Home | Current Version | Previous Version | Text Only | Print | Product List | Glossary On
Versions: 1 2 3 4 5 6 7 8 9 10 11 12 13 14 15
000
FTUS43 KLSX 280111 AAA
TAFUIN
TAF AMD
KUIN 280111Z 2801/2824 16012KT P6SM SCT030 OVC050
      TEMPO 2801/2803 4SM -SHRA OVC025
     FM280600 17008KT P6SM OVC035
     FM281000 16007KT P6SM OVC020
     FM281500 18009KT P6SM BKN070=

USA.gov is the U.S. government's official web portal to all federal, state and local government web resources and services.